createdAt,value
2024-01-10T00:00:26.303Z,-2.98
2024-01-10T00:03:28.298Z,-3.06
2024-01-10T00:06:31.157Z,-3.13
2024-01-10T00:09:34.510Z,-3.47
2024-01-10T00:12:37.958Z,-3.35
2024-01-10T00:15:40.124Z,-3.55
2024-01-10T00:18:42.286Z,-3.52
2024-01-10T00:21:44.176Z,-3.26
2024-01-10T00:24:48.765Z,-3.26
2024-01-10T00:27:50.881Z,-3.76
2024-01-10T00:30:53.208Z,-4.45
2024-01-10T00:33:55.462Z,-3.42
2024-01-10T00:36:58.436Z,-4.62
2024-01-10T00:40:01.903Z,-3.70
2024-01-10T00:43:05.271Z,-4.46
2024-01-10T00:46:07.302Z,-4.00
2024-01-10T00:49:09.426Z,-3.98
2024-01-10T00:52:12.605Z,-3.70
2024-01-10T00:55:17.961Z,-3.63
2024-01-10T00:58:23.654Z,-3.66
2024-01-10T01:01:26.600Z,-3.88
2024-01-10T01:04:30.043Z,-3.78
2024-01-10T01:07:33.025Z,-3.76
2024-01-10T01:10:38.293Z,-3.79
2024-01-10T01:13:41.798Z,-3.83
2024-01-10T01:16:44.773Z,-3.97
2024-01-10T01:19:47.997Z,-3.92
2024-01-10T01:22:51.027Z,-4.87
2024-01-10T01:25:54.639Z,-4.11
2024-01-10T01:28:56.967Z,-4.15
2024-01-10T01:31:59.027Z,-4.09
2024-01-10T01:35:01.929Z,-4.04
2024-01-10T01:38:06.585Z,-3.92
2024-01-10T01:41:11.808Z,-3.93
2024-01-10T01:44:14.775Z,-3.76
2024-01-10T01:47:18.059Z,-3.95
2024-01-10T01:50:21.176Z,-4.31
2024-01-10T01:53:25.494Z,-4.11
2024-01-10T01:56:29.156Z,-3.47
2024-01-10T01:59:31.917Z,-3.33
2024-01-10T02:02:35.785Z,-3.09
2024-01-10T02:05:38.305Z,-2.89
2024-01-10T02:08:40.855Z,-2.86
2024-01-10T02:11:44.539Z,-2.72
2024-01-10T02:14:46.782Z,-2.82
2024-01-10T02:17:48.745Z,-2.69
2024-01-10T02:20:51.299Z,-2.68
2024-01-10T02:23:53.716Z,-3.11
2024-01-10T02:26:57.186Z,-2.94
2024-01-10T02:30:02.070Z,-3.20
2024-01-10T02:33:05.038Z,-2.67
2024-01-10T02:36:07.389Z,-2.59
2024-01-10T02:39:09.311Z,-2.58
2024-01-10T02:42:13.311Z,-2.56
2024-01-10T02:45:15.466Z,-2.50
2024-01-10T02:48:17.888Z,-2.83
2024-01-10T02:51:19.836Z,-2.75
2024-01-10T02:54:21.836Z,-3.19
2024-01-10T02:57:26.063Z,-3.12
2024-01-10T03:00:27.950Z,-3.27
2024-01-10T03:03:30.099Z,-3.27
2024-01-10T03:06:32.702Z,-3.20
2024-01-10T03:09:34.812Z,-3.24
2024-01-10T03:12:38.930Z,-3.24
2024-01-10T03:15:40.822Z,-3.14
2024-01-10T03:18:42.912Z,-3.21
2024-01-10T03:21:45.704Z,-3.11
2024-01-10T03:24:47.537Z,-3.10
2024-01-10T03:27:50.832Z,-3.14
2024-01-10T03:30:53.278Z,-3.20
2024-01-10T03:33:55.355Z,-3.22
2024-01-10T03:36:57.554Z,-4.39
2024-01-10T03:40:00.554Z,-3.36
2024-01-10T03:43:04.122Z,-3.33
2024-01-10T03:46:06.985Z,-3.27
2024-01-10T03:49:09.098Z,-3.52
2024-01-10T03:52:11.555Z,-3.29
2024-01-10T03:55:14.234Z,-3.34
2024-01-10T03:58:17.929Z,-3.37
2024-01-10T04:01:23.698Z,-3.55
2024-01-10T04:04:25.665Z,-3.48
2024-01-10T04:07:28.903Z,-3.88
2024-01-10T04:10:30.793Z,-3.49
2024-01-10T04:13:34.809Z,-3.47
2024-01-10T04:16:36.694Z,-3.79
2024-01-10T04:19:38.851Z,-3.56
2024-01-10T04:22:47.149Z,-3.58
2024-01-10T04:25:54.307Z,-3.40
2024-01-10T04:29:02.845Z,-3.47
2024-01-10T04:32:12.466Z,-3.51
2024-01-10T04:35:19.029Z,-3.51
2024-01-10T04:38:20.915Z,-3.52
2024-01-10T04:41:23.392Z,-4.20
2024-01-10T04:44:26.974Z,-3.21
2024-01-10T04:47:29.000Z,-3.08
2024-01-10T04:50:31.494Z,-3.15
2024-01-10T04:53:33.505Z,-3.24
2024-01-10T04:56:40.086Z,-3.23
2024-01-10T04:59:43.371Z,-3.38
2024-01-10T05:02:45.437Z,-3.45
2024-01-10T05:05:47.668Z,-3.27
2024-01-10T05:08:50.515Z,-3.26
2024-01-10T05:11:53.400Z,-3.39
2024-01-10T05:14:57.768Z,-3.55
2024-01-10T05:17:59.803Z,-3.63
2024-01-10T05:21:02.711Z,-3.82
2024-01-10T05:24:05.577Z,-3.77
2024-01-10T05:27:08.342Z,-3.62
2024-01-10T05:30:14.025Z,-3.67
2024-01-10T05:33:16.024Z,-3.75
2024-01-10T05:36:17.990Z,-4.12
2024-01-10T05:39:22.040Z,-3.99
2024-01-10T05:42:24.319Z,-4.13
2024-01-10T05:45:27.730Z,-3.89
2024-01-10T05:48:29.737Z,-3.82
2024-01-10T05:51:32.434Z,-3.92
2024-01-10T05:54:34.318Z,-3.80
2024-01-10T05:57:36.260Z,-3.85
2024-01-10T06:00:39.536Z,-3.77
2024-01-10T06:03:41.536Z,-3.70
2024-01-10T06:06:44.252Z,-3.71
2024-01-10T06:09:46.626Z,-3.63
2024-01-10T06:12:48.554Z,-3.97
2024-01-10T06:15:51.887Z,-3.77
2024-01-10T06:18:53.954Z,-3.86
2024-01-10T06:21:57.143Z,-3.92
2024-01-10T06:25:01.056Z,-4.01
2024-01-10T06:28:03.235Z,-4.02
2024-01-10T06:31:07.968Z,-4.22
2024-01-10T06:34:11.169Z,-3.90
2024-01-10T06:37:13.166Z,-3.91
2024-01-10T06:40:15.477Z,-3.87
2024-01-10T06:43:18.111Z,-3.77
2024-01-10T06:46:21.690Z,-3.64
2024-01-10T06:49:24.113Z,-3.73
2024-01-10T06:52:26.034Z,-3.48
2024-01-10T06:55:30.078Z,-3.34
2024-01-10T06:58:32.281Z,-3.26
2024-01-10T07:01:36.480Z,-3.42
2024-01-10T07:04:38.730Z,-6.02
2024-01-10T07:07:40.781Z,-6.27
2024-01-10T07:10:42.715Z,-6.15
2024-01-10T07:13:45.115Z,-5.98
2024-01-10T07:16:49.125Z,-6.12
2024-01-10T07:19:52.070Z,-6.23
2024-01-10T07:22:54.027Z,-6.27
2024-01-10T07:25:56.061Z,-6.04
2024-01-10T07:28:57.926Z,-6.09
2024-01-10T07:32:01.445Z,-5.60
2024-01-10T07:35:03.577Z,-4.43
2024-01-10T07:38:09.397Z,-3.66
2024-01-10T07:41:13.138Z,-3.33
2024-01-10T07:44:15.197Z,-2.63
2024-01-10T07:47:18.654Z,-2.34
2024-01-10T07:50:20.986Z,-2.95
2024-01-10T07:53:27.261Z,-2.39
2024-01-10T07:56:29.387Z,-2.26
2024-01-10T07:59:31.559Z,-1.93
2024-01-10T08:02:35.198Z,-2.82
2024-01-10T08:05:37.396Z,-3.83
2024-01-10T08:08:39.875Z,-3.95
2024-01-10T08:11:41.802Z,-3.77
2024-01-10T08:14:47.215Z,-3.93
2024-01-10T08:17:51.714Z,-3.62
2024-01-10T08:20:53.706Z,-3.76
2024-01-10T08:23:56.002Z,-3.49
2024-01-10T08:26:58.042Z,-3.56
2024-01-10T08:30:01.053Z,-3.37
2024-01-10T08:33:05.996Z,-3.40
2024-01-10T08:36:10.891Z,-3.16
2024-01-10T08:39:13.120Z,-4.06
2024-01-10T08:42:15.194Z,-3.32
2024-01-10T08:45:17.841Z,-3.04
2024-01-10T08:48:21.197Z,-2.85
2024-01-10T08:51:23.785Z,-3.11
2024-01-10T08:54:26.342Z,-3.02
2024-01-10T08:57:29.190Z,-2.85
2024-01-10T09:00:31.251Z,-2.97
2024-01-10T09:03:34.792Z,-2.95
2024-01-10T09:06:39.406Z,-2.52
2024-01-10T09:09:41.582Z,-2.16
2024-01-10T09:12:47.322Z,-2.19
2024-01-10T09:15:49.718Z,-2.60
2024-01-10T09:18:55.612Z,-2.64
2024-01-10T09:21:58.845Z,-2.36
2024-01-10T09:25:05.223Z,-1.95
2024-01-10T09:28:07.284Z,-1.76
2024-01-10T09:31:10.044Z,-2.33
2024-01-10T09:34:13.623Z,-1.31
2024-01-10T09:37:15.868Z,-1.37
2024-01-10T09:40:19.148Z,-1.29
2024-01-10T09:43:23.162Z,-1.65
2024-01-10T09:46:25.973Z,-1.45
2024-01-10T09:49:30.618Z,-2.09
2024-01-10T09:52:38.793Z,-1.78
2024-01-10T09:55:41.279Z,-1.09
2024-01-10T09:58:47.261Z,-1.05
2024-01-10T10:01:49.669Z,-0.70
2024-01-10T10:04:58.610Z,-0.26
2024-01-10T10:08:00.804Z,-0.94
2024-01-10T10:11:03.794Z,-0.78
2024-01-10T10:14:19.347Z,-0.29
2024-01-10T10:17:21.957Z,-0.31
2024-01-10T10:20:26.883Z,-1.02
2024-01-10T10:23:29.063Z,-0.01
2024-01-10T10:26:34.333Z,-0.06
2024-01-10T10:29:37.322Z,-0.02
2024-01-10T10:32:39.673Z,0.43
2024-01-10T10:35:46.459Z,0.03
2024-01-10T10:38:50.847Z,0.21
2024-01-10T10:41:54.543Z,0.30
2024-01-10T10:45:03.673Z,0.56
2024-01-10T10:48:10.644Z,0.75
2024-01-10T10:51:20.300Z,0.30
2024-01-10T10:54:24.112Z,0.71
2024-01-10T10:57:28.141Z,0.60
2024-01-10T11:00:31.031Z,0.57
2024-01-10T11:03:37.187Z,0.75
2024-01-10T11:06:41.430Z,0.46
2024-01-10T11:09:46.257Z,0.62
2024-01-10T11:13:15.435Z,0.85
2024-01-10T11:16:39.636Z,1.37
2024-01-10T11:20:14.478Z,1.10
2024-01-10T11:23:40.282Z,1.04
2024-01-10T11:26:42.899Z,0.64
2024-01-10T11:29:47.908Z,0.40
2024-01-10T11:32:49.932Z,0.72
2024-01-10T11:36:17.003Z,1.58
2024-01-10T11:39:20.848Z,1.27
2024-01-10T11:42:24.523Z,0.63
2024-01-10T11:45:39.009Z,1.51
2024-01-10T11:48:42.119Z,1.66
2024-01-10T11:51:47.642Z,1.30
2024-01-10T11:54:51.641Z,1.08
2024-01-10T11:58:10.782Z,1.74
2024-01-10T12:01:12.885Z,1.67
2024-01-10T12:04:23.725Z,1.94
2024-01-10T12:07:29.349Z,1.87
2024-01-10T12:10:37.540Z,1.88
2024-01-10T12:13:39.756Z,1.67
2024-01-10T12:16:43.233Z,1.50
2024-01-10T12:19:47.365Z,1.96
2024-01-10T12:22:49.882Z,1.69
2024-01-10T12:25:53.817Z,2.21
2024-01-10T12:28:57.006Z,2.21
2024-01-10T12:32:00.969Z,1.66
2024-01-10T12:35:04.419Z,1.67
2024-01-10T12:38:07.293Z,2.16
2024-01-10T12:41:12.036Z,2.20
2024-01-10T12:44:14.439Z,2.19
2024-01-10T12:47:21.064Z,1.93
2024-01-10T12:50:23.221Z,2.19
2024-01-10T12:53:25.376Z,1.62
2024-01-10T12:56:29.720Z,1.63
2024-01-10T12:59:32.373Z,1.33
2024-01-10T13:02:38.372Z,1.44
2024-01-10T13:05:40.835Z,1.92
2024-01-10T13:08:43.833Z,0.98
2024-01-10T13:11:47.430Z,0.89
2024-01-10T13:14:50.150Z,1.50
2024-01-10T13:17:52.256Z,1.46
2024-01-10T13:20:54.715Z,1.25
2024-01-10T13:23:57.190Z,1.14
2024-01-10T13:27:00.592Z,0.87
2024-01-10T13:30:03.197Z,0.58
2024-01-10T13:33:05.250Z,0.61
2024-01-10T13:36:07.502Z,0.57
2024-01-10T13:39:10.203Z,0.53
2024-01-10T13:42:15.074Z,0.50
2024-01-10T13:45:18.329Z,0.40
2024-01-10T13:48:20.510Z,0.38
2024-01-10T13:51:23.094Z,0.39
2024-01-10T13:54:24.942Z,0.43
2024-01-10T13:57:30.845Z,0.46
2024-01-10T14:00:32.913Z,0.38
2024-01-10T14:03:34.945Z,-0.25
2024-01-10T14:06:37.401Z,-0.26
2024-01-10T14:09:39.306Z,-0.56
2024-01-10T14:12:43.376Z,-0.50
2024-01-10T14:15:45.415Z,-0.69
2024-01-10T14:18:49.598Z,-0.40
2024-01-10T14:21:51.653Z,-0.24
2024-01-10T14:24:56.208Z,-0.23
2024-01-10T14:28:03.148Z,-0.52
2024-01-10T14:31:14.063Z,-0.62
2024-01-10T14:34:26.392Z,-0.52
2024-01-10T14:37:28.317Z,-1.22
2024-01-10T14:40:31.239Z,-0.55
2024-01-10T14:43:34.563Z,-0.81
2024-01-10T14:46:37.067Z,-0.56
2024-01-10T14:49:39.534Z,-0.50
2024-01-10T14:52:41.879Z,-0.51
2024-01-10T14:55:43.826Z,-0.21
2024-01-10T14:58:47.315Z,-0.34
2024-01-10T15:01:49.982Z,-0.38
2024-01-10T15:04:52.112Z,-0.80
2024-01-10T15:07:55.384Z,-0.33
2024-01-10T15:10:57.563Z,-0.70
2024-01-10T15:14:02.145Z,-1.20
2024-01-10T15:17:10.072Z,-1.77
2024-01-10T15:20:13.991Z,-0.95
2024-01-10T15:23:16.171Z,-1.61
2024-01-10T15:26:22.171Z,-0.62
2024-01-10T15:29:25.597Z,-0.84
2024-01-10T15:32:29.618Z,-1.47
2024-01-10T15:35:31.765Z,-1.49
2024-01-10T15:38:33.790Z,-1.65
2024-01-10T15:41:35.946Z,-1.79
2024-01-10T15:44:41.448Z,-1.14
2024-01-10T15:47:44.979Z,-2.18
2024-01-10T15:50:47.130Z,-2.17
2024-01-10T15:53:51.535Z,-1.32
2024-01-10T15:56:53.714Z,-2.16
2024-01-10T15:59:59.426Z,-2.17
2024-01-10T16:03:04.161Z,-1.53
2024-01-10T16:06:06.973Z,-1.45
2024-01-10T16:09:10.284Z,-2.18
2024-01-10T16:12:12.258Z,-2.33
2024-01-10T16:15:17.405Z,-1.56
2024-01-10T16:18:19.581Z,-2.28
2024-01-10T16:21:24.434Z,-2.56
2024-01-10T16:24:26.438Z,-2.14
2024-01-10T16:27:28.709Z,-2.38
2024-01-10T16:30:32.178Z,-2.53
2024-01-10T16:33:34.643Z,-2.45
2024-01-10T16:36:36.607Z,-2.46
2024-01-10T16:39:40.304Z,-1.71
2024-01-10T16:42:42.265Z,-2.11
2024-01-10T16:45:46.050Z,-2.15
2024-01-10T16:48:48.282Z,-2.23
2024-01-10T16:51:50.626Z,-2.31
2024-01-10T16:54:52.601Z,-1.69
2024-01-10T16:57:55.424Z,-2.18
2024-01-10T17:01:00.588Z,-3.07
2024-01-10T17:04:02.670Z,-3.08
2024-01-10T17:07:05.805Z,-2.02
2024-01-10T17:10:08.317Z,-1.95
2024-01-10T17:13:10.753Z,-1.89
2024-01-10T17:16:14.422Z,-2.01
2024-01-10T17:19:16.828Z,-1.54
2024-01-10T17:22:18.793Z,-1.55
2024-01-10T17:25:22.152Z,-1.51
2024-01-10T17:28:24.167Z,-1.54
2024-01-10T17:31:27.929Z,-2.11
2024-01-10T17:34:32.613Z,-2.60
2024-01-10T17:37:34.890Z,-2.27
2024-01-10T17:40:37.441Z,-1.91
2024-01-10T17:43:39.562Z,-1.79
2024-01-10T17:46:44.915Z,-1.99
2024-01-10T17:49:46.950Z,-2.04
2024-01-10T17:52:49.306Z,-2.38
2024-01-10T17:55:51.522Z,-1.91
2024-01-10T17:58:53.553Z,-2.32
2024-01-10T18:01:57.944Z,-1.94
2024-01-10T18:05:00.197Z,-2.15
2024-01-10T18:08:02.567Z,-3.14
2024-01-10T18:11:05.071Z,-3.31
2024-01-10T18:14:07.194Z,-2.72
2024-01-10T18:17:10.784Z,-3.54
2024-01-10T18:20:13.851Z,-3.09
2024-01-10T18:23:16.552Z,-3.82
2024-01-10T18:26:18.737Z,-2.75
2024-01-10T18:29:23.322Z,-2.66
2024-01-10T18:32:27.003Z,-2.72
2024-01-10T18:35:29.122Z,-3.13
2024-01-10T18:38:31.140Z,-2.93
2024-01-10T18:41:33.393Z,-2.93
2024-01-10T18:44:36.070Z,-2.85
2024-01-10T18:47:39.573Z,-2.94
2024-01-10T18:50:42.373Z,-3.29
2024-01-10T18:53:44.424Z,-3.02
2024-01-10T18:56:47.243Z,-3.02
2024-01-10T18:59:49.112Z,-3.42
2024-01-10T19:02:52.532Z,-3.08
2024-01-10T19:05:54.503Z,-3.11
2024-01-10T19:08:57.557Z,-3.44
2024-01-10T19:11:59.536Z,-4.18
2024-01-10T19:15:02.378Z,-3.95
2024-01-10T19:18:06.228Z,-3.56
2024-01-10T19:21:09.004Z,-3.53
2024-01-10T19:24:12.753Z,-3.55
2024-01-10T19:27:16.930Z,-3.65
2024-01-10T19:30:22.528Z,-3.62
2024-01-10T19:33:27.044Z,-3.50
2024-01-10T19:36:31.864Z,-3.93
2024-01-10T19:39:35.604Z,-3.49
2024-01-10T19:42:38.217Z,-4.40
2024-01-10T19:45:40.477Z,-4.41
2024-01-10T19:48:45.722Z,-4.16
2024-01-10T19:51:47.980Z,-3.75
2024-01-10T19:54:50.752Z,-3.63
2024-01-10T19:57:53.285Z,-3.93
2024-01-10T20:00:55.542Z,-3.74
2024-01-10T20:03:59.735Z,-3.75
2024-01-10T20:07:01.893Z,-3.79
2024-01-10T20:10:04.294Z,-3.77
2024-01-10T20:13:08.185Z,-4.60
2024-01-10T20:16:11.522Z,-4.02
2024-01-10T20:19:15.297Z,-4.89
2024-01-10T20:22:18.585Z,-4.21
2024-01-10T20:25:25.645Z,-4.12
2024-01-10T20:28:28.202Z,-4.05
2024-01-10T20:31:30.411Z,-4.18
2024-01-10T20:34:34.885Z,-4.30
2024-01-10T20:37:37.245Z,-5.05
2024-01-10T20:40:40.018Z,-5.36
2024-01-10T20:43:42.046Z,-5.09
2024-01-10T20:46:44.118Z,-4.25
2024-01-10T20:49:48.513Z,-4.20
2024-01-10T20:52:50.578Z,-4.09
2024-01-10T20:55:53.081Z,-4.19
2024-01-10T20:58:55.125Z,-4.29
2024-01-10T21:01:57.111Z,-5.07
2024-01-10T21:05:01.942Z,-3.15
2024-01-10T21:08:05.046Z,-2.69
2024-01-10T21:11:08.066Z,-2.51
2024-01-10T21:14:11.282Z,-2.65
2024-01-10T21:17:14.722Z,-3.03
2024-01-10T21:20:19.024Z,-2.50
2024-01-10T21:23:21.620Z,-2.31
2024-01-10T21:26:24.042Z,-2.36
2024-01-10T21:29:26.071Z,-2.23
2024-01-10T21:32:28.272Z,-2.38
2024-01-10T21:35:31.950Z,-2.26
2024-01-10T21:38:33.968Z,-2.62
2024-01-10T21:41:36.901Z,-3.02
2024-01-10T21:44:38.967Z,-3.17
2024-01-10T21:47:41.139Z,-4.25
2024-01-10T21:50:47.357Z,-3.24
2024-01-10T21:53:50.044Z,-3.29
2024-01-10T21:56:52.062Z,-3.51
2024-01-10T21:59:54.044Z,-3.79
2024-01-10T22:02:58.040Z,-3.94
2024-01-10T22:06:02.486Z,-3.09
2024-01-10T22:09:04.923Z,-3.39
2024-01-10T22:12:09.025Z,-3.26
2024-01-10T22:15:11.180Z,-3.28
2024-01-10T22:18:13.460Z,-3.35
2024-01-10T22:21:18.013Z,-3.43
2024-01-10T22:24:19.904Z,-3.56
2024-01-10T22:27:22.768Z,-3.48
2024-01-10T22:30:25.873Z,-3.52
2024-01-10T22:33:28.128Z,-3.40
2024-01-10T22:36:31.580Z,-3.58
2024-01-10T22:39:33.512Z,-4.29
2024-01-10T22:42:37.170Z,-3.98
2024-01-10T22:45:39.126Z,-4.12
2024-01-10T22:48:41.365Z,-3.73
2024-01-10T22:51:45.049Z,-3.65
2024-01-10T22:54:46.972Z,-3.65
2024-01-10T22:57:52.488Z,-3.65
2024-01-10T23:00:54.376Z,-3.69
2024-01-10T23:03:56.623Z,-3.54
2024-01-10T23:07:00.005Z,-3.80
2024-01-10T23:10:01.959Z,-4.28
2024-01-10T23:13:04.320Z,-4.19
2024-01-10T23:16:06.819Z,-3.34
2024-01-10T23:19:10.564Z,-4.57
2024-01-10T23:22:13.992Z,-3.42
2024-01-10T23:25:16.741Z,-4.02
2024-01-10T23:28:18.765Z,-3.35
2024-01-10T23:31:21.867Z,-3.49
2024-01-10T23:34:23.831Z,-3.32
2024-01-10T23:37:27.305Z,-3.57
2024-01-10T23:40:29.999Z,-4.64
2024-01-10T23:43:32.056Z,-4.33
2024-01-10T23:46:34.519Z,-4.71
2024-01-10T23:49:36.611Z,-4.28
2024-01-10T23:52:41.010Z,-4.21
2024-01-10T23:55:43.882Z,-4.36
2024-01-10T23:58:45.918Z,-3.76
